Terminal Aerodrome Forecast
Issued by NWS

Home | Current Version | Previous Version | Text Only | Print | Product List | Glossary On
Versions: 1 2 3 4 5 6 7 8 9 10 11 12 13
000
FTUS43 KFGF 252300
TAFDVL
TAF
KDVL 252333Z 2600/2624 VRB04KT P6SM SKC
     FM260600 13006KT P6SM FEW250
     FM261200 14012G17KT P6SM SCT250
     FM261500 14017G26KT P6SM BKN250
     FM262100 16013KT P6SM BKN120
      AMD LTD TO CLD VIS AND WIND=

USA.gov is the U.S. government's official web portal to all federal, state and local government web resources and services.